createdAt,value
2022-12-03T00:00:11.920Z,152.40
2022-12-03T00:02:39.545Z,159.70
2022-12-03T00:05:06.383Z,150.40
2022-12-03T00:07:32.985Z,144.30
2022-12-03T00:09:59.699Z,140.10
2022-12-03T00:12:26.220Z,140.30
2022-12-03T00:14:52.752Z,147.50
2022-12-03T00:17:19.302Z,150.40
2022-12-03T00:19:46.460Z,138.40
2022-12-03T00:22:13.002Z,145.00
2022-12-03T00:24:39.830Z,132.90
2022-12-03T00:27:06.344Z,135.70
2022-12-03T00:29:32.807Z,136.60
2022-12-03T00:31:59.351Z,131.20
2022-12-03T00:34:25.774Z,141.90
2022-12-03T00:36:52.201Z,127.40
2022-12-03T00:39:18.771Z,123.20
2022-12-03T00:41:45.191Z,119.20
2022-12-03T00:44:11.658Z,126.40
2022-12-03T00:46:38.240Z,122.50
2022-12-03T00:49:04.839Z,113.20
2022-12-03T00:51:31.374Z,120.70
2022-12-03T00:53:57.837Z,129.30
2022-12-03T00:56:24.354Z,126.00
2022-12-03T00:58:50.791Z,121.10
2022-12-03T01:01:17.273Z,112.80
2022-12-03T01:03:43.768Z,124.10
2022-12-03T01:06:10.168Z,119.50
2022-12-03T01:08:36.749Z,126.50
2022-12-03T01:11:03.222Z,117.10
2022-12-03T01:13:29.593Z,124.90
2022-12-03T01:15:56.093Z,127.70
2022-12-03T01:18:22.751Z,129.50
2022-12-03T01:20:49.192Z,124.10
2022-12-03T01:23:15.633Z,132.60
2022-12-03T01:25:42.329Z,124.20
2022-12-03T01:28:08.964Z,138.10
2022-12-03T01:30:35.501Z,136.90
2022-12-03T01:33:02.016Z,126.70
2022-12-03T01:35:28.396Z,142.40
2022-12-03T01:37:54.926Z,149.30
2022-12-03T01:40:22.110Z,140.80
2022-12-03T01:42:48.831Z,134.00
2022-12-03T01:45:22.662Z,129.00
2022-12-03T01:47:49.467Z,131.20
2022-12-03T01:50:30.314Z,127.80
2022-12-03T01:52:59.994Z,89.00
2022-12-03T01:55:26.710Z,123.30
2022-12-03T01:57:57.163Z,122.90
2022-12-03T02:00:26.771Z,117.60
2022-12-03T02:03:02.169Z,123.30
2022-12-03T02:05:31.731Z,126.30
2022-12-03T02:07:59.578Z,120.90
2022-12-03T02:10:30.557Z,119.90
2022-12-03T02:13:08.757Z,127.90
2022-12-03T02:15:40.243Z,121.00
2022-12-03T02:20:51.769Z,116.20
2022-12-03T02:23:30.865Z,113.00
2022-12-03T02:25:57.516Z,110.80
2022-12-03T02:28:24.050Z,108.40
2022-12-03T02:30:50.514Z,116.10
2022-12-03T02:33:17.235Z,131.00
2022-12-03T02:35:44.368Z,132.20
2022-12-03T02:38:17.126Z,130.00
2022-12-03T02:40:46.517Z,124.40
2022-12-03T02:43:16.358Z,133.00
2022-12-03T02:45:46.130Z,127.10
2022-12-03T02:48:19.284Z,124.40
2022-12-03T02:50:51.375Z,128.70
2022-12-03T02:53:22.290Z,119.70
2022-12-03T02:55:50.311Z,142.10
2022-12-03T02:58:17.870Z,150.00
2022-12-03T03:00:46.662Z,134.10
2022-12-03T03:03:13.814Z,132.40
2022-12-03T03:05:41.278Z,137.80
2022-12-03T03:08:09.550Z,143.10
2022-12-03T03:10:38.767Z,147.90
2022-12-03T03:13:09.404Z,134.70
2022-12-03T03:15:37.379Z,132.70
2022-12-03T03:18:05.147Z,130.30
2022-12-03T03:20:32.098Z,145.80
2022-12-03T03:23:12.867Z,139.40
2022-12-03T03:25:43.100Z,154.20
2022-12-03T03:28:10.051Z,131.20
2022-12-03T03:30:39.130Z,142.80
2022-12-03T03:33:06.135Z,139.30
2022-12-03T03:35:32.848Z,143.70
2022-12-03T03:38:00.001Z,147.20
2022-12-03T03:40:27.178Z,131.90
2022-12-03T03:42:55.565Z,129.70
2022-12-03T03:45:28.571Z,137.40
2022-12-03T03:47:57.355Z,147.20
2022-12-03T03:50:24.175Z,135.50
2022-12-03T03:52:50.899Z,143.70
2022-12-03T03:55:17.998Z,138.30
2022-12-03T03:57:44.654Z,134.10
2022-12-03T04:00:11.983Z,134.30
2022-12-03T04:02:38.634Z,134.90
2022-12-03T04:05:06.727Z,140.10
2022-12-03T04:07:33.225Z,134.60
2022-12-03T04:09:59.749Z,148.70
2022-12-03T04:12:26.255Z,137.80
2022-12-03T04:14:52.971Z,127.10
2022-12-03T04:17:19.808Z,143.50
2022-12-03T04:19:46.272Z,139.90
2022-12-03T04:22:12.783Z,139.40
2022-12-03T04:24:39.225Z,131.40
2022-12-03T04:27:05.743Z,162.20
2022-12-03T04:29:32.303Z,144.90
2022-12-03T04:31:58.763Z,148.60
2022-12-03T04:34:25.376Z,124.10
2022-12-03T04:36:51.768Z,138.70
2022-12-03T04:39:18.351Z,135.40
2022-12-03T04:41:44.870Z,148.30
2022-12-03T04:44:11.441Z,147.00
2022-12-03T04:46:37.859Z,143.70
2022-12-03T04:49:04.254Z,140.90
2022-12-03T04:51:30.628Z,152.80
2022-12-03T04:53:57.055Z,139.00
2022-12-03T04:56:23.524Z,147.00
2022-12-03T04:58:50.064Z,156.50
2022-12-03T05:01:16.650Z,151.60
2022-12-03T05:03:43.173Z,157.40
2022-12-03T05:06:09.601Z,157.60
2022-12-03T05:08:36.049Z,159.50
2022-12-03T05:11:02.518Z,149.70
2022-12-03T05:13:29.007Z,155.90
2022-12-03T05:15:55.535Z,168.10
2022-12-03T05:18:21.954Z,152.80
2022-12-03T05:20:53.204Z,165.60
2022-12-03T05:23:20.793Z,169.00
2022-12-03T05:25:47.254Z,179.20
2022-12-03T05:28:14.102Z,178.50
2022-12-03T05:30:40.930Z,172.70
2022-12-03T05:33:07.481Z,186.10
2022-12-03T05:35:34.312Z,172.80
2022-12-03T05:38:00.851Z,182.10
2022-12-03T05:40:27.323Z,180.50
2022-12-03T05:42:53.950Z,179.70
2022-12-03T05:45:23.450Z,177.30
2022-12-03T05:47:49.982Z,194.00
2022-12-03T05:50:16.826Z,177.10
2022-12-03T05:52:43.777Z,208.20
2022-12-03T05:55:10.913Z,216.60
2022-12-03T05:57:38.122Z,226.70
2022-12-03T06:00:08.116Z,215.30
2022-12-03T06:02:34.966Z,206.30
2022-12-03T06:05:01.603Z,208.20
2022-12-03T06:07:28.208Z,211.10
2022-12-03T06:09:54.705Z,220.70
2022-12-03T06:12:21.103Z,225.90
2022-12-03T06:14:47.666Z,224.20
2022-12-03T06:17:14.133Z,203.10
2022-12-03T06:19:40.542Z,213.70
2022-12-03T06:22:07.214Z,208.50
2022-12-03T06:24:33.731Z,242.30
2022-12-03T06:27:00.269Z,261.80
2022-12-03T06:29:26.934Z,237.30
2022-12-03T06:31:53.348Z,252.50
2022-12-03T06:34:19.886Z,271.50
2022-12-03T06:36:46.425Z,262.50
2022-12-03T06:39:13.290Z,249.90
2022-12-03T06:41:39.735Z,243.40
2022-12-03T06:44:06.180Z,247.50
2022-12-03T06:46:32.775Z,246.60
2022-12-03T06:48:59.930Z,292.90
2022-12-03T06:51:26.579Z,283.70
2022-12-03T06:53:53.046Z,283.00
2022-12-03T06:56:22.253Z,326.80
2022-12-03T06:58:49.175Z,274.60
2022-12-03T07:01:15.665Z,245.80
2022-12-03T07:03:42.163Z,253.30
2022-12-03T07:06:08.689Z,260.10
2022-12-03T07:08:35.106Z,247.10
2022-12-03T07:11:01.621Z,234.00
2022-12-03T07:13:28.210Z,228.60
2022-12-03T07:15:54.691Z,251.70
2022-12-03T07:18:21.388Z,239.70
2022-12-03T07:20:47.928Z,226.50
2022-12-03T07:23:14.579Z,218.90
2022-12-03T07:25:41.012Z,240.80
2022-12-03T07:28:07.555Z,231.10
2022-12-03T07:30:33.970Z,224.70
2022-12-03T07:33:00.424Z,274.90
2022-12-03T07:35:27.064Z,251.00
2022-12-03T07:37:53.445Z,278.70
2022-12-03T07:40:19.860Z,244.10
2022-12-03T07:42:46.377Z,327.40
2022-12-03T07:45:12.814Z,273.40
2022-12-03T07:47:39.252Z,268.50
2022-12-03T07:50:06.446Z,258.70
2022-12-03T07:52:32.874Z,243.80
2022-12-03T07:54:59.393Z,227.40
2022-12-03T07:57:25.936Z,223.00
2022-12-03T07:59:52.479Z,226.50
2022-12-03T08:02:21.530Z,208.60
2022-12-03T08:04:48.527Z,215.40
2022-12-03T08:07:14.957Z,204.00
2022-12-03T08:09:42.233Z,211.50
2022-12-03T08:12:27.083Z,209.30
2022-12-03T08:14:53.672Z,202.90
2022-12-03T08:17:20.406Z,209.10
2022-12-03T08:19:47.199Z,203.00
2022-12-03T08:22:15.404Z,192.90
2022-12-03T08:24:43.512Z,170.70
2022-12-03T08:27:28.035Z,180.70
2022-12-03T08:30:01.414Z,178.50
2022-12-03T08:32:28.076Z,184.30
2022-12-03T08:34:54.796Z,173.20
2022-12-03T08:37:21.499Z,181.70
2022-12-03T08:39:50.948Z,163.50
2022-12-03T08:42:55.096Z,166.20
2022-12-03T08:45:59.263Z,165.70
2022-12-03T08:51:48.449Z,142.80
2022-12-03T08:54:20.280Z,151.30
2022-12-03T09:00:21.686Z,138.70
2022-12-03T09:02:55.908Z,141.60
2022-12-03T09:05:28.567Z,141.50
2022-12-03T09:07:55.286Z,134.90
2022-12-03T09:10:21.894Z,135.10
2022-12-03T09:12:48.394Z,133.90
2022-12-03T09:15:14.893Z,133.30
2022-12-03T09:17:41.481Z,160.00
2022-12-03T09:20:08.631Z,151.20
2022-12-03T09:22:35.066Z,155.10
2022-12-03T09:25:01.712Z,139.00
2022-12-03T09:27:28.200Z,125.00
2022-12-03T09:29:54.616Z,126.10
2022-12-03T09:32:21.306Z,129.70
2022-12-03T09:34:47.813Z,122.00
2022-12-03T09:37:14.308Z,121.60
2022-12-03T09:39:40.956Z,116.40
2022-12-03T09:42:08.327Z,115.40
2022-12-03T09:44:36.163Z,118.30
2022-12-03T09:47:04.687Z,117.10
2022-12-03T09:49:33.576Z,111.90
2022-12-03T09:52:03.093Z,104.60
2022-12-03T09:54:31.354Z,110.20
2022-12-03T09:57:01.136Z,110.50
2022-12-03T09:59:32.007Z,101.60
2022-12-03T10:01:59.546Z,97.90
2022-12-03T10:04:28.665Z,104.00
2022-12-03T10:06:57.312Z,101.00
2022-12-03T10:09:27.119Z,107.20
2022-12-03T10:11:55.783Z,114.50
2022-12-03T10:14:22.391Z,106.00
2022-12-03T10:16:49.299Z,110.60
2022-12-03T10:19:35.143Z,114.00
2022-12-03T10:22:02.668Z,109.60
2022-12-03T10:24:31.906Z,120.60
2022-12-03T10:27:03.676Z,118.50
2022-12-03T10:32:43.819Z,110.40
2022-12-03T10:35:45.827Z,108.50
2022-12-03T10:38:18.417Z,110.00
2022-12-03T10:40:45.774Z,102.60
2022-12-03T10:43:24.290Z,104.00
2022-12-03T10:45:51.855Z,118.90
2022-12-03T10:48:22.386Z,114.70
2022-12-03T10:50:51.945Z,113.70
2022-12-03T10:53:20.324Z,103.70
2022-12-03T10:55:48.557Z,108.30
2022-12-03T10:58:47.866Z,102.70
2022-12-03T11:01:23.014Z,99.50
2022-12-03T11:03:55.835Z,93.80
2022-12-03T11:06:23.568Z,94.60
2022-12-03T11:09:28.174Z,86.50
2022-12-03T11:14:54.642Z,92.90
2022-12-03T11:17:50.804Z,83.80
2022-12-03T11:20:22.809Z,93.40
2022-12-03T11:25:49.794Z,89.30
2022-12-03T11:28:19.003Z,83.00
2022-12-03T11:30:51.669Z,90.20
2022-12-03T11:33:36.308Z,97.70
2022-12-03T11:36:02.778Z,102.00
2022-12-03T11:38:53.012Z,93.80
2022-12-03T11:41:30.497Z,96.60
2022-12-03T11:43:58.939Z,97.30
2022-12-03T11:46:37.961Z,95.50
2022-12-03T11:49:31.976Z,84.10
2022-12-03T11:52:01.585Z,86.10
2022-12-03T11:54:28.586Z,96.70
2022-12-03T12:00:21.821Z,90.40
2022-12-03T12:05:22.133Z,77.40
2022-12-03T12:07:49.539Z,81.60
2022-12-03T12:10:39.100Z,70.00
2022-12-03T12:13:06.126Z,67.80
2022-12-03T12:15:50.947Z,62.20
2022-12-03T12:18:39.345Z,60.20
2022-12-03T12:24:37.829Z,51.10
2022-12-03T12:27:19.091Z,49.70
2022-12-03T12:29:52.839Z,53.00
2022-12-03T12:32:29.682Z,50.40
2022-12-03T12:35:25.457Z,56.10
2022-12-03T12:38:07.357Z,49.50
2022-12-03T12:40:45.566Z,50.40
2022-12-03T12:43:15.512Z,48.90
2022-12-03T12:45:45.709Z,46.50
2022-12-03T12:48:15.323Z,51.60
2022-12-03T12:50:44.525Z,49.30
2022-12-03T12:53:11.067Z,47.90
2022-12-03T12:55:43.281Z,49.40
2022-12-03T12:58:22.664Z,50.60
2022-12-03T13:03:37.090Z,52.90
2022-12-03T13:06:26.232Z,56.50
2022-12-03T13:08:53.591Z,61.10
2022-12-03T13:11:28.441Z,56.90
2022-12-03T13:13:54.956Z,49.30
2022-12-03T13:22:23.116Z,56.00
2022-12-03T13:28:18.852Z,62.10
2022-12-03T13:30:45.595Z,61.20
2022-12-03T13:33:15.008Z,62.80
2022-12-03T13:38:37.381Z,54.60
2022-12-03T13:41:11.371Z,65.10
2022-12-03T13:43:42.846Z,62.10
2022-12-03T13:52:01.135Z,62.60
2022-12-03T13:54:30.538Z,63.70
2022-12-03T13:56:57.084Z,67.70
2022-12-03T13:59:26.262Z,64.00
2022-12-03T14:01:53.299Z,147.90
2022-12-03T14:07:02.901Z,252.40
2022-12-03T14:09:29.444Z,159.10
2022-12-03T14:11:56.526Z,226.10
2022-12-03T14:14:23.139Z,99.60
2022-12-03T14:17:00.095Z,106.60
2022-12-03T14:19:31.916Z,134.70
2022-12-03T14:21:58.401Z,112.90
2022-12-03T14:24:24.871Z,105.90
2022-12-03T14:26:53.646Z,97.30
2022-12-03T14:29:29.934Z,101.20
2022-12-03T14:32:03.267Z,111.30
2022-12-03T14:34:30.475Z,114.90
2022-12-03T14:36:56.859Z,118.30
2022-12-03T14:39:25.112Z,122.50
2022-12-03T14:41:51.644Z,143.40
2022-12-03T14:44:19.686Z,142.20
2022-12-03T14:46:49.747Z,163.30
2022-12-03T14:49:18.934Z,172.00
2022-12-03T14:51:45.388Z,179.30
2022-12-03T14:54:11.994Z,204.00
2022-12-03T14:56:38.382Z,206.30
2022-12-03T14:59:04.818Z,192.30
2022-12-03T15:01:31.529Z,168.20
2022-12-03T15:03:58.021Z,173.20
2022-12-03T15:06:24.538Z,173.10
2022-12-03T15:08:51.076Z,187.40
2022-12-03T15:11:17.471Z,193.40
2022-12-03T15:13:54.450Z,202.80
2022-12-03T15:16:28.960Z,205.10
2022-12-03T15:22:17.055Z,193.50
2022-12-03T15:24:49.280Z,211.80
2022-12-03T15:27:18.785Z,224.60
2022-12-03T15:29:45.328Z,231.30
2022-12-03T15:35:04.514Z,242.20
2022-12-03T15:37:36.836Z,251.80
2022-12-03T15:40:03.704Z,289.50
2022-12-03T15:42:30.183Z,293.90
2022-12-03T15:44:56.832Z,310.20
2022-12-03T15:47:23.263Z,283.60
2022-12-03T15:52:31.242Z,299.00
2022-12-03T15:55:03.354Z,340.70
2022-12-03T15:57:30.199Z,368.00
2022-12-03T15:59:57.294Z,342.70
2022-12-03T16:02:24.031Z,332.40
2022-12-03T16:04:50.646Z,384.40
2022-12-03T16:07:17.185Z,367.80
2022-12-03T16:09:50.730Z,437.00
2022-12-03T16:12:17.877Z,385.90
2022-12-03T16:14:44.325Z,397.90
2022-12-03T16:17:15.939Z,421.70
2022-12-03T16:19:42.590Z,633.40
2022-12-03T16:22:09.536Z,516.80
2022-12-03T16:27:26.189Z,503.70
2022-12-03T16:32:34.336Z,410.30
2022-12-03T16:35:00.944Z,430.90
2022-12-03T16:37:33.860Z,477.90
2022-12-03T16:40:00.371Z,417.90
2022-12-03T16:42:28.446Z,388.50
2022-12-03T16:45:15.985Z,369.30
2022-12-03T16:48:01.362Z,362.90
2022-12-03T16:50:30.249Z,354.00
2022-12-03T16:59:15.082Z,312.90
2022-12-03T17:01:41.690Z,405.70
2022-12-03T17:04:08.361Z,463.30
2022-12-03T17:06:34.798Z,429.60
2022-12-03T17:09:01.221Z,428.00
2022-12-03T17:11:27.780Z,383.60
2022-12-03T17:13:54.206Z,367.00
2022-12-03T17:16:21.070Z,371.90
2022-12-03T17:18:47.702Z,379.20
2022-12-03T17:21:14.140Z,375.00
2022-12-03T17:23:40.677Z,375.80
2022-12-03T17:26:07.164Z,386.90
2022-12-03T17:28:33.656Z,372.50
2022-12-03T17:31:00.187Z,372.60
2022-12-03T17:33:26.669Z,431.30
2022-12-03T17:35:53.173Z,314.80
2022-12-03T17:38:19.625Z,316.60
2022-12-03T17:40:46.000Z,403.80
2022-12-03T17:43:12.584Z,424.70
2022-12-03T17:45:39.055Z,418.80
2022-12-03T17:48:05.660Z,373.90
2022-12-03T17:50:32.146Z,389.10
2022-12-03T17:52:58.635Z,413.20
2022-12-03T17:55:33.879Z,398.70
2022-12-03T17:58:04.613Z,401.50
2022-12-03T18:00:31.649Z,585.80
2022-12-03T18:02:58.275Z,524.20
2022-12-03T18:05:24.785Z,538.90
2022-12-03T18:07:51.624Z,534.00
2022-12-03T18:10:18.406Z,460.50
2022-12-03T18:12:44.819Z,541.90
2022-12-03T18:15:11.506Z,426.00
2022-12-03T18:17:37.947Z,417.70
2022-12-03T18:20:05.425Z,440.30
2022-12-03T18:22:31.946Z,470.90
2022-12-03T18:24:58.877Z,420.80
2022-12-03T18:27:25.538Z,410.20
2022-12-03T18:29:52.220Z,410.10
2022-12-03T18:32:29.361Z,418.70
2022-12-03T18:34:57.794Z,422.00
2022-12-03T18:37:29.111Z,436.40
2022-12-03T18:39:57.595Z,514.30
2022-12-03T18:42:25.155Z,502.50
2022-12-03T18:44:54.270Z,398.00
2022-12-03T18:47:23.934Z,390.00
2022-12-03T18:49:51.024Z,391.20
2022-12-03T18:52:20.433Z,394.70
2022-12-03T18:54:48.002Z,385.10
2022-12-03T18:57:15.245Z,436.20
2022-12-03T18:59:41.979Z,420.80
2022-12-03T19:02:38.592Z,429.40
2022-12-03T19:05:02.316Z,426.40
2022-12-03T19:07:28.886Z,664.50
2022-12-03T19:09:55.847Z,433.60
2022-12-03T19:12:22.539Z,345.30
2022-12-03T19:14:49.076Z,400.00
2022-12-03T19:17:15.451Z,349.10
2022-12-03T19:19:41.969Z,411.40
2022-12-03T19:22:08.486Z,398.50
2022-12-03T19:24:35.441Z,396.70
2022-12-03T19:27:01.874Z,578.00
2022-12-03T19:29:28.415Z,527.10
2022-12-03T19:31:54.917Z,583.40
2022-12-03T19:34:21.690Z,518.20
2022-12-03T19:36:48.241Z,524.70
2022-12-03T19:39:14.691Z,493.20
2022-12-03T19:41:41.222Z,440.50
2022-12-03T19:44:10.924Z,431.70
2022-12-03T19:46:37.798Z,415.00
2022-12-03T19:49:04.531Z,430.20
2022-12-03T19:51:35.583Z,440.70
2022-12-03T19:54:06.928Z,429.60
2022-12-03T19:56:34.434Z,432.80
2022-12-03T19:59:00.940Z,414.00
2022-12-03T20:01:30.509Z,401.30
2022-12-03T20:03:59.152Z,425.40
2022-12-03T20:06:28.743Z,405.50
2022-12-03T20:09:02.158Z,415.30
2022-12-03T20:11:31.748Z,413.60
2022-12-03T20:14:00.855Z,410.00
2022-12-03T20:16:28.375Z,385.10
2022-12-03T20:19:03.916Z,414.90
2022-12-03T20:21:32.648Z,377.90
2022-12-03T20:23:59.500Z,380.70
2022-12-03T20:26:26.344Z,396.60
2022-12-03T20:28:54.042Z,400.70
2022-12-03T20:31:23.266Z,393.60
2022-12-03T20:33:52.524Z,407.80
2022-12-03T20:36:20.874Z,467.70
2022-12-03T20:38:47.441Z,425.30
2022-12-03T20:41:16.762Z,400.50
2022-12-03T20:43:43.290Z,369.10
2022-12-03T20:46:15.394Z,379.00
2022-12-03T20:48:43.430Z,375.10
2022-12-03T20:51:13.074Z,402.00
2022-12-03T20:53:39.684Z,378.50
2022-12-03T20:56:07.518Z,334.00
2022-12-03T20:58:35.029Z,361.00
2022-12-03T21:01:15.919Z,334.00
2022-12-03T21:03:44.022Z,310.20
2022-12-03T21:06:11.849Z,304.50
2022-12-03T21:08:41.810Z,307.40
2022-12-03T21:11:14.885Z,202.10
2022-12-03T21:13:41.559Z,300.70
2022-12-03T21:16:10.538Z,265.20
2022-12-03T21:18:37.223Z,300.90
2022-12-03T21:21:04.866Z,316.60
2022-12-03T21:23:32.872Z,297.90
2022-12-03T21:26:08.387Z,363.00
2022-12-03T21:28:35.241Z,330.60
2022-12-03T21:31:04.508Z,328.40
2022-12-03T21:33:32.037Z,302.90
2022-12-03T21:35:59.554Z,294.90
2022-12-03T21:38:27.347Z,302.80
2022-12-03T21:40:54.950Z,337.20
2022-12-03T21:43:21.993Z,312.50
2022-12-03T21:45:49.168Z,298.60
2022-12-03T21:48:16.838Z,325.90
2022-12-03T21:50:43.752Z,300.20
2022-12-03T21:53:10.533Z,295.80
2022-12-03T21:55:41.151Z,317.40
2022-12-03T21:58:08.811Z,365.50
2022-12-03T22:00:35.840Z,400.70
2022-12-03T22:03:02.514Z,526.70
2022-12-03T22:05:29.088Z,457.40
2022-12-03T22:07:55.569Z,437.60
2022-12-03T22:10:22.108Z,427.50
2022-12-03T22:12:48.524Z,435.00
2022-12-03T22:15:18.775Z,398.40
2022-12-03T22:17:45.948Z,380.30
2022-12-03T22:20:12.814Z,442.70
2022-12-03T22:22:39.333Z,409.10
2022-12-03T22:25:05.940Z,424.40
2022-12-03T22:27:32.617Z,432.20
2022-12-03T22:29:59.038Z,394.40
2022-12-03T22:32:25.696Z,484.00
2022-12-03T22:34:52.084Z,411.00
2022-12-03T22:37:18.576Z,357.70
2022-12-03T22:39:45.100Z,356.30
2022-12-03T22:42:11.551Z,365.40
2022-12-03T22:44:37.989Z,362.20
2022-12-03T22:47:04.849Z,345.40
2022-12-03T22:49:31.269Z,341.30
2022-12-03T22:51:57.815Z,342.80
2022-12-03T22:54:24.484Z,355.10
2022-12-03T22:56:51.195Z,331.40
2022-12-03T22:59:17.625Z,311.00
2022-12-03T23:01:44.176Z,318.10
2022-12-03T23:04:11.754Z,333.50
2022-12-03T23:06:38.722Z,334.30
2022-12-03T23:09:06.672Z,423.10
2022-12-03T23:11:34.033Z,405.90
2022-12-03T23:14:00.885Z,334.60
2022-12-03T23:16:31.863Z,352.70
2022-12-03T23:19:00.211Z,302.40
2022-12-03T23:21:30.241Z,289.20
2022-12-03T23:23:59.331Z,265.60
2022-12-03T23:26:26.394Z,262.30
2022-12-03T23:28:53.033Z,257.50
2022-12-03T23:31:23.504Z,256.10
2022-12-03T23:33:51.298Z,247.60
2022-12-03T23:36:18.702Z,228.80
2022-12-03T23:38:45.538Z,243.30
2022-12-03T23:41:14.923Z,231.90
2022-12-03T23:43:41.773Z,231.70
2022-12-03T23:46:11.463Z,244.70
2022-12-03T23:48:38.551Z,241.10
2022-12-03T23:51:07.405Z,240.30
2022-12-03T23:53:35.236Z,232.70
2022-12-03T23:56:20.004Z,228.50
2022-12-03T23:58:47.535Z,226.10
